Aviation Digital Data Service (ADDS)

Output produced by METARs form (1631 UTC 02 March 2015)
found at http://aviationweather.gov/adds/metars/
 
KMPV 021505Z 0215/0312 31014G24KT 5SM -SHSN OVC035 
     TEMPO 0215/0218 31014G20KT 1 1/2SM -SHSN BR BKN021 OVC030 
     FM022300 30015G25KT P6SM VCSH OVC050 
     FM030600 32010G18KT P6SM BKN250